Flight Track Log - Related Links

Times and Time Zones

All times are in EDT time to prevent confusion due to time zone crossing. See the UAL4457 flight status page for this flight to view local times or setup timezone preferences in your user account.

Time Position Orientation Groundspeed Altitude Reporting Facility
EDT Latitude Longitude Course Direction KTS MPH feet Rate Location/Type
Thu 05:35:16 PM 37.9656 -84.7003 232° Southwest 208 239 5,600  Level Indianapolis Center
Thu 05:36:00 PM 37.9069 -84.9221 241° Southwest  Level FlightAware Approximate
Thu 05:36:18 PM 37.9581 -84.7853 264° West 239 275 8,400  Level Indianapolis Center
Thu 05:37:00 PM 37.8602 -85.0270 241° Southwest  Level FlightAware Approximate
Thu 05:37:20 PM 37.9492 -84.8864 264° West 248 285 10,800  Level Indianapolis Center
Thu 05:38:00 PM 37.8166 -85.1335 247° West  Level FlightAware Approximate
Thu 05:38:22 PM 37.9364 -84.9950 262° West 297 342 12,200  Level Indianapolis Center
Thu 05:39:00 PM 37.7750 -85.2521 241° Southwest  Level FlightAware Approximate
Thu 05:39:24 PM 37.9122 -85.1006 254° West 314 361 14,300  Level Indianapolis Center
Thu 05:40:26 PM 37.8731 -85.1936 242° Southwest 321 369 16,500 1,935 Climbing Indianapolis Center
Thu 05:41:28 PM 37.8306 -85.2986 243° Southwest 313 360 18,300 1,645 Climbing Indianapolis Center
Thu 05:42:30 PM 37.7906 -85.3986 243° Southwest 317 365 19,900 1,742 Climbing Indianapolis Center
Thu 05:43:32 PM 37.7397 -85.5181 242° Southwest 329 379 21,900 1,839 Climbing Indianapolis Center
Thu 05:44:34 PM 37.7000 -85.6172 243° Southwest 328 377 23,700 1,742 Climbing Indianapolis Center
Thu 05:45:36 PM 37.6564 -85.7206 242° Southwest 329 379 25,500 1,694 Climbing Indianapolis Center
Thu 05:46:38 PM 37.6133 -85.8228 242° Southwest 329 379 27,200 1,790 Climbing Indianapolis Center
Thu 05:47:40 PM 37.5717 -85.9206 242° Southwest 318 366 29,200 1,839 Climbing Indianapolis Center
Thu 05:48:42 PM 37.5319 -86.0167 242° Southwest 302 348 31,000 1,548 Climbing Indianapolis Center
Thu 05:49:44 PM 37.4864 -86.1247 242° Southwest 298 343 32,400 1,306 Climbing Indianapolis Center
Thu 05:50:46 PM 37.4469 -86.2167 242° Southwest 298 343 33,700 1,211 Climbing Indianapolis Center
Thu 05:51:33 PM 37.4211 -86.2806 243° Southwest 311 358 34,600 1,121 Climbing Memphis Center
Thu 05:52:33 PM 37.3825 -86.3714 242° Southwest 311 358 35,700 1,077 Climbing Memphis Center
Thu 05:52:51 PM 37.3703 -86.3992 241° Southwest 292 336 36,000 300 Climbing Indianapolis Center
Thu 05:53:33 PM 37.3436 -86.4594 241° Southwest 306 352 36,000  Level Memphis Center
Thu 05:54:33 PM 37.3008 -86.5606 242° Southwest 315 362 36,000  Level Memphis Center
Thu 05:55:33 PM 37.2581 -86.6617 242° Southwest 334 384 36,000  Level Memphis Center
Thu 05:56:33 PM 37.2092 -86.7733 241° Southwest 355 409 36,000  Level Memphis Center
Thu 05:57:33 PM 37.1567 -86.8981 242° Southwest 367 422 36,000  Level Memphis Center
Thu 05:58:33 PM 37.1075 -87.0119 242° Southwest 372 428 36,000  Level Memphis Center
Thu 05:59:33 PM 37.0606 -87.1206 242° Southwest 372 428 36,000  Level Memphis Center
Thu 06:00:33 PM 37.0131 -87.2264 241° Southwest 364 419 36,000  Level Memphis Center
Thu 06:01:33 PM 36.9658 -87.3372 242° Southwest 364 419 36,000  Level Memphis Center
Thu 06:02:33 PM 36.9167 -87.4506 242° Southwest 358 412 36,000  Level Memphis Center
Thu 06:03:33 PM 36.8669 -87.5614 241° Southwest 363 418 36,000  Level Memphis Center
Thu 06:04:33 PM 36.8153 -87.6719 240° Southwest 363 418 36,000  Level Memphis Center
Thu 06:05:33 PM 36.7675 -87.7797 241° Southwest 363 418 36,000  Level Memphis Center
Thu 06:06:33 PM 36.7178 -87.8928 241° Southwest 363 418 36,000  Level Memphis Center
Thu 06:07:33 PM 36.6697 -88.0028 241° Southwest 362 417 36,000  Level Memphis Center
Thu 06:08:33 PM 36.6197 -88.1156 241° Southwest 362 417 36,000  Level Memphis Center
Thu 06:09:33 PM 36.5797 -88.2122 243° Southwest 362 417 36,000  Level Memphis Center
Thu 06:10:33 PM 36.5275 -88.3247 240° Southwest 362 417 36,000  Level Memphis Center
Thu 06:11:33 PM 36.4772 -88.4317 240° Southwest 362 417 36,000  Level Memphis Center
Thu 06:12:33 PM 36.4267 -88.5411 240° Southwest 362 417 36,000  Level Memphis Center
Thu 06:13:33 PM 36.3781 -88.6481 241° Southwest 362 417 36,000  Level Memphis Center
Thu 06:14:33 PM 36.3294 -88.7519 240° Southwest 362 417 36,000  Level Memphis Center
Thu 06:15:33 PM 36.2789 -88.8586 240° Southwest 356 410 36,000  Level Memphis Center
Thu 06:16:33 PM 36.2300 -88.9650 240° Southwest 356 410 36,000  Level Memphis Center
Thu 06:17:33 PM 36.1789 -89.0686 239° Southwest 356 410 36,000  Level Memphis Center
Thu 06:18:33 PM 36.1239 -89.1903 241° Southwest 361 415 36,000  Level Memphis Center
Thu 06:19:33 PM 36.0747 -89.2989 241° Southwest 361 415 36,000  Level Memphis Center
Thu 06:20:33 PM 36.0236 -89.4075 240° Southwest 361 415 36,000  Level Memphis Center
Thu 06:21:33 PM 35.9764 -89.5106 241° Southwest 361 415 36,000  Level Memphis Center
Thu 06:22:33 PM 35.9269 -89.6161 240° Southwest 355 409 36,000  Level Memphis Center
Thu 06:23:33 PM 35.8797 -89.7164 240° Southwest 355 409 36,000  Level Memphis Center
Thu 06:24:33 PM 35.8300 -89.8219 240° Southwest 355 409 36,000  Level Memphis Center
Thu 06:25:33 PM 35.7806 -89.9272 240° Southwest 355 409 36,000  Level Memphis Center
Thu 06:26:33 PM 35.7308 -90.0347 240° Southwest 360 414 36,000  Level Memphis Center
Thu 06:27:33 PM 35.6872 -90.1322 241° Southwest 366 421 36,000  Level Memphis Center
Thu 06:28:33 PM 35.6311 -90.2522 240° Southwest 366 421 36,000  Level Memphis Center
Thu 06:29:33 PM 35.5789 -90.3622 240° Southwest 361 415 36,000  Level Memphis Center
Thu 06:30:33 PM 35.5247 -90.4692 238° Southwest 368 423 36,000  Level Memphis Center
Thu 06:31:33 PM 35.4744 -90.5789 241° Southwest 373 429 36,000  Level Memphis Center
Thu 06:32:33 PM 35.4200 -90.6883 239° Southwest 373 429 36,000  Level Memphis Center
Thu 06:33:33 PM 35.3675 -90.7950 239° Southwest 379 436 36,000  Level Memphis Center
Thu 06:34:33 PM 35.3150 -90.9067 240° Southwest 385 443 36,000  Level Memphis Center
Thu 06:35:33 PM 35.2622 -91.0131 239° Southwest 385 443 36,000  Level Memphis Center
Thu 06:36:33 PM 35.2094 -91.1194 239° Southwest 374 430 36,000  Level Memphis Center
Thu 06:37:33 PM 35.1544 -91.2256 238° Southwest 374 430 36,000  Level Memphis Center
Thu 06:38:33 PM 35.1036 -91.3367 241° Southwest 379 436 36,000  Level Memphis Center
Thu 06:39:33 PM 35.0486 -91.4378 236° Southwest 373 429 36,000  Level Memphis Center
Thu 06:40:33 PM 34.9933 -91.5433 237° Southwest 368 423 36,000  Level Memphis Center
Thu 06:41:33 PM 34.9444 -91.6492 241° Southwest 368 423 36,000  Level Memphis Center
Thu 06:42:33 PM 34.8911 -91.7547 238° Southwest 368 423 36,000  Level Memphis Center
Thu 06:43:33 PM 34.8397 -91.8575 239° Southwest 368 423 36,000  Level Memphis Center
Thu 06:44:33 PM 34.7864 -91.9653 239° Southwest 368 423 36,000  Level Memphis Center
Thu 06:45:33 PM 34.7328 -92.0706 238° Southwest 368 423 36,000  Level Memphis Center
Thu 06:46:33 PM 34.6689 -92.1703 232° Southwest 374 430 36,000  Level Memphis Center
Thu 06:47:33 PM 34.5556 -92.2031 193° South 380 437 36,000  Level Memphis Center
Thu 06:48:33 PM 34.4364 -92.2258 189° South 419 482 36,000  Level Memphis Center
Thu 06:49:33 PM 34.3128 -92.2481 188° South 425 489 36,000  Level Memphis Center
Thu 06:50:33 PM 34.1958 -92.2683 188° South 431 496 36,000 -100 Level Memphis Center
Thu 06:51:33 PM 34.0786 -92.2931 190° South 431 496 35,800 -691 Descending Memphis Center
Thu 06:53:18 PM 33.8725 -92.3356 190° South 418 481 34,100 -655 Descending Fort Worth Center
Thu 06:54:18 PM 33.7481 -92.3553 188° South 441 507 34,000 -50 Descending Fort Worth Center
Thu 06:55:18 PM 33.6258 -92.3772 189° South 448 516 34,000  Level Fort Worth Center
Thu 06:56:18 PM 33.5161 -92.3983 189° South 448 516 34,000  Level Fort Worth Center
Thu 06:57:18 PM 33.3939 -92.4203 189° South 448 516 34,000  Level Fort Worth Center
Thu 06:58:18 PM 33.2694 -92.4422 188° South 448 516 34,000  Level Fort Worth Center
Thu 06:59:18 PM 33.1492 -92.4639 189° South 442 509 34,000  Level Fort Worth Center
Thu 07:00:18 PM 33.0250 -92.4856 188° South 442 509 34,000  Level Fort Worth Center
Thu 07:01:18 PM 32.9025 -92.5072 188° South 447 514 34,000  Level Fort Worth Center
Thu 07:03:17 PM 32.6481 -92.5558 189° South 445 512 34,000  Level Houston Center
Thu 07:04:19 PM 32.5233 -92.5767 188° South 450 518 34,000  Level Houston Center
Thu 07:05:21 PM 32.4000 -92.5975 188° South 450 518 34,000  Level Houston Center
Thu 07:06:23 PM 32.2775 -92.6197 189° South 446 513 34,000  Level Houston Center
Thu 07:07:25 PM 32.1553 -92.6414 189° South 446 513 34,000  Level Houston Center
Thu 07:08:27 PM 32.0344 -92.6653 190° South 441 507 34,000  Level Houston Center
Thu 07:09:30 PM 31.9094 -92.7383 206° Southwest 427 491 34,000  Level Houston Center
Thu 07:10:32 PM 31.8228 -92.8239 220° Southwest 411 473 34,000  Level Houston Center
Thu 07:11:34 PM 31.7350 -92.9092 220° Southwest 411 473 34,000  Level Houston Center
Thu 07:12:36 PM 31.6467 -92.9942 219° Southwest 411 473 34,000  Level Houston Center
Thu 07:13:38 PM 31.5589 -93.0794 220° Southwest 412 474 34,000  Level Houston Center
Thu 07:14:40 PM 31.4522 -93.1797 219° Southwest 412 474 34,000  Level Houston Center
Thu 07:15:42 PM 31.3642 -93.2642 219° Southwest 410 472 34,000 -339 Level Houston Center
Thu 07:16:44 PM 31.2792 -93.3458 219° Southwest 413 475 33,300 -1,161 Descending Houston Center
Thu 07:17:46 PM 31.1861 -93.4333 219° Southwest 414 476 31,600 -1,548 Descending Houston Center
Thu 07:18:48 PM 31.0958 -93.5194 219° Southwest 420 483 30,100 -1,452 Descending Houston Center
Thu 07:19:50 PM 31.0039 -93.6075 219° Southwest 428 493 28,600 -1,632 Descending Houston Center
Thu 07:20:53 PM 30.8919 -93.7131 219° Southwest 434 499 26,700 -1,680 Descending Houston Center
Thu 07:21:55 PM 30.7978 -93.8017 219° Southwest 438 504 25,100 -1,742 Descending Houston Center
Thu 07:22:57 PM 30.7058 -93.8889 219° Southwest 432 497 23,100 -1,935 Descending Houston Center
Thu 07:23:59 PM 30.6125 -93.9753 219° Southwest 431 496 21,100 -1,984 Descending Houston Center
Thu 07:25:01 PM 30.5233 -94.0594 219° Southwest 420 483 19,000 -2,129 Descending Houston Center
Thu 07:26:03 PM 30.4206 -94.1564 219° Southwest 403 464 16,700 -2,370 Descending Houston Center
Thu 07:26:22 PM 30.3883 -94.1844 217° Southwest 391 450 15,800 -2,419 Descending Houston Center
Thu 07:27:05 PM 30.3361 -94.2367 221° Southwest 396 456 14,200 -2,507 Descending Houston Center
Thu 07:27:29 PM 30.2925 -94.2747 217° Southwest 392 451 13,000 -1,935 Descending Houston Center
Thu 07:28:07 PM 30.2536 -94.3111 219° Southwest 382 440 12,200 -984 Descending Houston Center
Thu 07:28:30 PM 30.2214 -94.3422 220° Southwest 322 371 12,000 -194 Descending Houston Center
Thu 07:29:09 PM 30.1953 -94.3844 234° Southwest 328 377 12,000 -393 Level Houston Center
Thu 07:29:31 PM 30.1844 -94.4364 256° West 320 368 11,600 -968 Descending Houston Center
Thu 07:30:11 PM 30.1769 -94.4919 261° West 316 364 11,000 -1,082 Descending Houston Center
Thu 07:30:32 PM 30.1689 -94.5353 258° West 283 326 10,500 -1,065 Descending Houston Center
Thu 07:31:13 PM 30.1608 -94.5803 258° West 286 329 9,900 -1,071 Descending Houston Center
Thu 07:31:28 PM 30.1536 -94.6169 257° West 280 322 9,500 -952 Descending Houston Center
Thu 07:32:16 PM 30.1453 -94.6689 260° West 284 327 8,900 -985 Descending Houston Center
Thu 07:32:35 PM 30.1378 -94.7133 259° West 286 329 8,400 -1,161 Descending Houston Center
Thu 07:33:18 PM 30.1278 -94.7758 260° West 283 326 7,700 -1,082 Descending Houston Center
Thu 07:33:36 PM 30.1211 -94.8025 254° West 282 325 7,300 -1,065 Descending Houston Center
Thu 07:34:20 PM 30.1119 -94.8644 260° West 285 328 6,600 -984 Descending Houston Center
Thu 07:34:37 PM 30.1047 -94.8964 255° West 279 321 6,300 -581 Descending Houston Center
Thu 07:35:22 PM 30.1061 -94.9508 272° West 274 315 6,000 -295 Descending Houston Center
Thu 07:35:38 PM 30.1047 -94.9833 267° West 281 323 6,000  Level Houston Center
Thu 07:36:24 PM 30.1064 -95.0397 272° West 279 321 6,000 98 Level Houston Center
Thu 07:36:39 PM 30.1047 -95.0728 267° West 276 318 6,100  Climbing Houston Center
Thu 07:37:26 PM 30.1069 -95.1278 273° West 277 319 6,000 -97 Descending Houston Center
Thu 07:37:41 PM 30.1067 -95.1617 269° West 278 320 6,000  Level Houston Center
Thu 07:38:28 PM 30.1078 -95.2328 271° West 274 315 6,000  Level Houston Center
Thu 07:39:30 PM 30.1075 -95.3075 270° West 245 282 6,000 -75 Level Houston Center
Thu 07:39:48 PM 30.1056 -95.3333 265° West 228 262 5,900 -1,065 Descending Houston Center
Thu 07:40:32 PM 30.1075 -95.3817 273° West 235 270 4,900 -1,574 Descending Houston Center
Thu 07:40:49 PM 30.1061 -95.4058 266° West 233 268 4,300 -1,714 Descending Houston Center
Thu 07:41:35 PM 30.1069 -95.4561 271° West 234 269 3,100 -1,279 Descending Houston Center
Thu 07:41:50 PM 30.0872 -95.4756 220° Southwest 222 255 3,000 -194 Descending Houston Center
Thu 07:42:37 PM 30.0553 -95.4742 178° South 221 254 2,900 -569 Descending Houston Center
Thu 07:43:46 PM 29.9969 -95.4528 162° South 146 168 1,900 -726 Descending Houston Center
Thu 07:44:41 PM 29.9925 -95.4161 98° East 156 180 1,400 -545 Descending Houston Center

Login

Don't have an account? Register now (free) for customized features, flight alerts, and more!